UAL586 KORD-KLGA
Flight info
| Callsign | UAL586 |
|---|---|
| Flight time | 1h 24m |
| Altitude | 37000 |
| Route | MOBLE ADIME GERBS Q186 WEVEL ETG MIP4 |
| Aircraft | B38M/M-SDE1FGHILORVWXY/HB1 |
Departure
| Time | 2026-05-06 08:17 |
|---|---|
| Airport | Chicago O'Hare International Airport (KORD) |
Arrival
| Time | 2026-05-06 09:41 |
|---|---|
| Airport | LaGuardia Airport (KLGA) |
| Time | Latitude | Longitude | Altitude | Speed | Heading |
|---|---|---|---|---|---|
| 2026-05-06 07:53 | 41.97482 | -87.90538 | 673 ft | 0 kts | 272° |
| 2026-05-06 08:01 | 41.97482 | -87.90537 | 664 ft | 0 kts | 272° |
| 2026-05-06 08:08 | 41.97485 | -87.90511 | 673 ft | 4 kts | 223° |
| 2026-05-06 08:09 | 41.97507 | -87.90501 | 669 ft | 3 kts | 172° |
| 2026-05-06 08:09 | 41.97510 | -87.90501 | 669 ft | 1 kts | 171° |
| 2026-05-06 08:11 | 41.97502 | -87.90500 | 671 ft | 4 kts | 171° |
| 2026-05-06 08:12 | 41.97440 | -87.90494 | 673 ft | 13 kts | 178° |
| 2026-05-06 08:12 | 41.97338 | -87.90490 | 672 ft | 16 kts | 180° |
| 2026-05-06 08:12 | 41.97223 | -87.90474 | 668 ft | 13 kts | 137° |
| 2026-05-06 08:12 | 41.97206 | -87.90351 | 670 ft | 14 kts | 91° |
| 2026-05-06 08:13 | 41.97206 | -87.90212 | 670 ft | 16 kts | 90° |
| 2026-05-06 08:13 | 41.97207 | -87.90056 | 670 ft | 17 kts | 89° |
| 2026-05-06 08:13 | 41.97214 | -87.89894 | 671 ft | 18 kts | 75° |
| 2026-05-06 08:13 | 41.97272 | -87.89731 | 666 ft | 22 kts | 62° |
| 2026-05-06 08:14 | 41.97356 | -87.89578 | 664 ft | 21 kts | 38° |
| 2026-05-06 08:14 | 41.97500 | -87.89525 | 660 ft | 23 kts | 1° |
| 2026-05-06 08:14 | 41.97668 | -87.89524 | 659 ft | 25 kts | 359° |
| 2026-05-06 08:14 | 41.97839 | -87.89525 | 664 ft | 23 kts | 359° |
| 2026-05-06 08:15 | 41.97982 | -87.89457 | 658 ft | 26 kts | 48° |
| 2026-05-06 08:15 | 41.98095 | -87.89280 | 662 ft | 25 kts | 49° |
| 2026-05-06 08:15 | 41.98199 | -87.89246 | 663 ft | 15 kts | 327° |
| 2026-05-06 08:15 | 41.98278 | -87.89322 | 665 ft | 14 kts | 324° |
| 2026-05-06 08:16 | 41.98360 | -87.89400 | 665 ft | 15 kts | 324° |
| 2026-05-06 08:16 | 41.98394 | -87.89473 | 666 ft | 0 kts | 271° |
| 2026-05-06 08:16 | 41.98394 | -87.89589 | 669 ft | 41 kts | 270° |
| 2026-05-06 08:17 | 41.98392 | -87.90288 | 662 ft | 107 kts | 270° |
| 2026-05-06 08:17 | 41.98391 | -87.91524 | 675 ft | 157 kts | 272° |
| 2026-05-06 08:17 | 41.98422 | -87.93047 | 1065 ft | 169 kts | 272° |
| 2026-05-06 08:17 | 41.98262 | -87.94688 | 1467 ft | 192 kts | 250° |
| 2026-05-06 08:18 | 41.97317 | -87.95977 | 2003 ft | 203 kts | 198° |
| 2026-05-06 08:18 | 41.95943 | -87.95933 | 2670 ft | 199 kts | 156° |
| 2026-05-06 08:18 | 41.94829 | -87.94810 | 3214 ft | 209 kts | 122° |
| 2026-05-06 08:18 | 41.94319 | -87.92975 | 3801 ft | 215 kts | 91° |
| 2026-05-06 08:19 | 41.94500 | -87.90985 | 4578 ft | 215 kts | 69° |
| 2026-05-06 08:19 | 41.95268 | -87.89215 | 5085 ft | 230 kts | 43° |
| 2026-05-06 08:19 | 41.96491 | -87.87689 | 5529 ft | 250 kts | 40° |
| 2026-05-06 08:19 | 41.97563 | -87.85726 | 5995 ft | 275 kts | 64° |
| 2026-05-06 08:20 | 41.97929 | -87.83172 | 6756 ft | 283 kts | 90° |
| 2026-05-06 08:20 | 41.97845 | -87.80495 | 7516 ft | 291 kts | 91° |
| 2026-05-06 08:20 | 41.97753 | -87.77733 | 8234 ft | 298 kts | 91° |
| 2026-05-06 08:20 | 41.97648 | -87.74921 | 8998 ft | 305 kts | 92° |
| 2026-05-06 08:21 | 41.97533 | -87.72041 | 9751 ft | 311 kts | 92° |
| 2026-05-06 08:21 | 41.97410 | -87.69104 | 10334 ft | 321 kts | 93° |
| 2026-05-06 08:21 | 41.97279 | -87.66024 | 10638 ft | 340 kts | 94° |
| 2026-05-06 08:21 | 41.97139 | -87.62774 | 11017 ft | 356 kts | 94° |
| 2026-05-06 08:22 | 41.96993 | -87.59404 | 11506 ft | 366 kts | 94° |
| 2026-05-06 08:22 | 41.96846 | -87.56060 | 12129 ft | 371 kts | 94° |
| 2026-05-06 08:22 | 41.96692 | -87.52567 | 12781 ft | 377 kts | 95° |
| 2026-05-06 08:22 | 41.96537 | -87.49071 | 13434 ft | 382 kts | 95° |
| 2026-05-06 08:23 | 41.96377 | -87.45481 | 14054 ft | 387 kts | 95° |
| 2026-05-06 08:23 | 41.96214 | -87.41844 | 14631 ft | 393 kts | 95° |
| 2026-05-06 08:23 | 41.96047 | -87.38157 | 15201 ft | 398 kts | 96° |
| 2026-05-06 08:23 | 41.95876 | -87.34422 | 15773 ft | 403 kts | 96° |
| 2026-05-06 08:24 | 41.95702 | -87.30635 | 16320 ft | 409 kts | 96° |
| 2026-05-06 08:24 | 41.95524 | -87.26793 | 16862 ft | 414 kts | 96° |
| 2026-05-06 08:24 | 41.95344 | -87.22908 | 17348 ft | 420 kts | 96° |
| 2026-05-06 08:24 | 41.95158 | -87.18968 | 17871 ft | 426 kts | 96° |
| 2026-05-06 08:25 | 41.94969 | -87.14969 | 18357 ft | 431 kts | 96° |
| 2026-05-06 08:25 | 41.94777 | -87.10933 | 18822 ft | 435 kts | 96° |
| 2026-05-06 08:25 | 41.94602 | -87.06917 | 19286 ft | 439 kts | 92° |
| 2026-05-06 08:25 | 41.94687 | -87.02787 | 19756 ft | 443 kts | 90° |
| 2026-05-06 08:26 | 41.94777 | -86.98640 | 20224 ft | 446 kts | 90° |
| 2026-05-06 08:26 | 41.94849 | -86.94453 | 20697 ft | 449 kts | 91° |
| 2026-05-06 08:26 | 41.94909 | -86.90240 | 21096 ft | 454 kts | 91° |
| 2026-05-06 08:26 | 41.94966 | -86.85996 | 21547 ft | 457 kts | 92° |
| 2026-05-06 08:27 | 41.95022 | -86.81710 | 21989 ft | 461 kts | 92° |
| 2026-05-06 08:27 | 41.95076 | -86.77376 | 22425 ft | 465 kts | 92° |
| 2026-05-06 08:27 | 41.95129 | -86.73028 | 22852 ft | 468 kts | 92° |
| 2026-05-06 08:27 | 41.95181 | -86.68635 | 23285 ft | 472 kts | 93° |
| 2026-05-06 08:28 | 41.95231 | -86.64221 | 23677 ft | 475 kts | 93° |
| 2026-05-06 08:28 | 41.95280 | -86.59827 | 24084 ft | 477 kts | 93° |
| 2026-05-06 08:28 | 41.95327 | -86.55380 | 24458 ft | 479 kts | 93° |
| 2026-05-06 08:28 | 41.95373 | -86.50884 | 24787 ft | 484 kts | 93° |
| 2026-05-06 08:29 | 41.95417 | -86.46360 | 25213 ft | 485 kts | 93° |
| 2026-05-06 08:29 | 41.95460 | -86.41819 | 25623 ft | 487 kts | 93° |
| 2026-05-06 08:29 | 41.95501 | -86.37263 | 26019 ft | 489 kts | 94° |
| 2026-05-06 08:29 | 41.95541 | -86.32676 | 26412 ft | 491 kts | 94° |
| 2026-05-06 08:30 | 41.95579 | -86.28081 | 26802 ft | 493 kts | 94° |
| 2026-05-06 08:30 | 41.95616 | -86.23464 | 27189 ft | 494 kts | 94° |
| 2026-05-06 08:30 | 41.95385 | -86.18910 | 27542 ft | 490 kts | 103° |
| 2026-05-06 08:30 | 41.94975 | -86.14345 | 27857 ft | 493 kts | 103° |
| 2026-05-06 08:31 | 41.94561 | -86.09821 | 28172 ft | 496 kts | 103° |
| 2026-05-06 08:31 | 41.94134 | -86.05218 | 28548 ft | 497 kts | 103° |
| 2026-05-06 08:31 | 41.93703 | -86.00607 | 28880 ft | 499 kts | 104° |
| 2026-05-06 08:31 | 41.93268 | -85.95973 | 29230 ft | 500 kts | 104° |
| 2026-05-06 08:32 | 41.92830 | -85.91324 | 29561 ft | 502 kts | 104° |
| 2026-05-06 08:32 | 41.92391 | -85.86687 | 29886 ft | 504 kts | 104° |
| 2026-05-06 08:32 | 41.91946 | -85.82000 | 30170 ft | 505 kts | 104° |
| 2026-05-06 08:32 | 41.91498 | -85.77307 | 30391 ft | 508 kts | 104° |
| 2026-05-06 08:33 | 41.91044 | -85.72573 | 30610 ft | 511 kts | 104° |
| 2026-05-06 08:33 | 41.90586 | -85.67822 | 30798 ft | 513 kts | 104° |
| 2026-05-06 08:33 | 41.90130 | -85.63122 | 31002 ft | 516 kts | 104° |
| 2026-05-06 08:33 | 41.89664 | -85.58327 | 31212 ft | 519 kts | 104° |
| 2026-05-06 08:34 | 41.89196 | -85.53528 | 31419 ft | 521 kts | 103° |
| 2026-05-06 08:34 | 41.88244 | -85.43850 | 31815 ft | 527 kts | 103° |
| 2026-05-06 08:34 | 41.87760 | -85.38961 | 31960 ft | 530 kts | 103° |
| 2026-05-06 08:35 | 41.87272 | -85.34052 | 32130 ft | 533 kts | 103° |
| 2026-05-06 08:35 | 41.86780 | -85.29122 | 32352 ft | 535 kts | 103° |
| 2026-05-06 08:35 | 41.86282 | -85.24159 | 32527 ft | 538 kts | 103° |
| 2026-05-06 08:35 | 41.85782 | -85.19196 | 32722 ft | 540 kts | 103° |
| 2026-05-06 08:36 | 41.85275 | -85.14188 | 32906 ft | 542 kts | 103° |
| 2026-05-06 08:36 | 41.84766 | -85.09178 | 33110 ft | 544 kts | 103° |
| 2026-05-06 08:36 | 41.84252 | -85.04143 | 33337 ft | 545 kts | 103° |
| 2026-05-06 08:36 | 41.83737 | -84.99112 | 33660 ft | 544 kts | 103° |
| 2026-05-06 08:37 | 41.83219 | -84.94089 | 33940 ft | 544 kts | 103° |
| 2026-05-06 08:37 | 41.82701 | -84.89087 | 34132 ft | 545 kts | 103° |
| 2026-05-06 08:37 | 41.82177 | -84.84045 | 34325 ft | 546 kts | 103° |
| 2026-05-06 08:37 | 41.81650 | -84.78993 | 34504 ft | 547 kts | 103° |
| 2026-05-06 08:38 | 41.81122 | -84.73949 | 34688 ft | 548 kts | 103° |
| 2026-05-06 08:38 | 41.80596 | -84.68956 | 34873 ft | 549 kts | 103° |
| 2026-05-06 08:38 | 41.80061 | -84.63895 | 35084 ft | 548 kts | 103° |
| 2026-05-06 08:38 | 41.79526 | -84.58847 | 35402 ft | 546 kts | 103° |
| 2026-05-06 08:39 | 41.78991 | -84.53821 | 35554 ft | 547 kts | 103° |
| 2026-05-06 08:39 | 41.78451 | -84.48762 | 35716 ft | 549 kts | 103° |
| 2026-05-06 08:39 | 41.77921 | -84.43688 | 35879 ft | 551 kts | 100° |
| 2026-05-06 08:39 | 41.77777 | -84.38529 | 36050 ft | 555 kts | 93° |
| 2026-05-06 08:40 | 41.77745 | -84.33337 | 36177 ft | 557 kts | 93° |
| 2026-05-06 08:40 | 41.77717 | -84.28153 | 36296 ft | 558 kts | 93° |
| 2026-05-06 08:40 | 41.77691 | -84.23016 | 36421 ft | 559 kts | 93° |
| 2026-05-06 08:40 | 41.77663 | -84.17815 | 36560 ft | 560 kts | 93° |
| 2026-05-06 08:41 | 41.77633 | -84.12603 | 36711 ft | 561 kts | 92° |
| 2026-05-06 08:41 | 41.77600 | -84.07370 | 36850 ft | 561 kts | 92° |
| 2026-05-06 08:41 | 41.77565 | -84.02141 | 36902 ft | 562 kts | 92° |
| 2026-05-06 08:42 | 41.77488 | -83.91676 | 36881 ft | 561 kts | 93° |
| 2026-05-06 08:42 | 41.77401 | -83.81237 | 36880 ft | 562 kts | 93° |
| 2026-05-06 08:43 | 41.77305 | -83.70770 | 36877 ft | 562 kts | 93° |
| 2026-05-06 08:43 | 41.77200 | -83.60312 | 36878 ft | 561 kts | 93° |
| 2026-05-06 08:44 | 41.76623 | -83.49947 | 36881 ft | 557 kts | 100° |
| 2026-05-06 08:44 | 41.75641 | -83.39607 | 36865 ft | 559 kts | 101° |
| 2026-05-06 08:45 | 41.74640 | -83.29356 | 36872 ft | 559 kts | 101° |
| 2026-05-06 08:45 | 41.73619 | -83.18994 | 36868 ft | 558 kts | 101° |
| 2026-05-06 08:46 | 41.72594 | -83.08695 | 36862 ft | 557 kts | 101° |
| 2026-05-06 08:46 | 41.71567 | -82.98466 | 36867 ft | 557 kts | 101° |
| 2026-05-06 08:47 | 41.70527 | -82.88201 | 36870 ft | 557 kts | 101° |
| 2026-05-06 08:47 | 41.69477 | -82.77932 | 36845 ft | 557 kts | 101° |
| 2026-05-06 08:48 | 41.68417 | -82.67663 | 36866 ft | 556 kts | 101° |
| 2026-05-06 08:48 | 41.67350 | -82.57419 | 36866 ft | 556 kts | 101° |
| 2026-05-06 08:49 | 41.66278 | -82.47210 | 36865 ft | 556 kts | 101° |
| 2026-05-06 08:49 | 41.65195 | -82.36978 | 36840 ft | 556 kts | 101° |
| 2026-05-06 08:50 | 41.64107 | -82.26812 | 36857 ft | 556 kts | 101° |
| 2026-05-06 08:50 | 41.63005 | -82.16593 | 36860 ft | 556 kts | 102° |
| 2026-05-06 08:51 | 41.61893 | -82.06367 | 36862 ft | 556 kts | 102° |
| 2026-05-06 08:51 | 41.60773 | -81.96148 | 36868 ft | 556 kts | 102° |
| 2026-05-06 08:52 | 41.59644 | -81.85938 | 36862 ft | 556 kts | 102° |
| 2026-05-06 08:52 | 41.58505 | -81.75730 | 36866 ft | 556 kts | 102° |
| 2026-05-06 08:53 | 41.57366 | -81.65595 | 36858 ft | 556 kts | 102° |
| 2026-05-06 08:53 | 41.56215 | -81.55436 | 36875 ft | 557 kts | 102° |
| 2026-05-06 08:54 | 41.55248 | -81.46951 | 36863 ft | 556 kts | 102° |
| 2026-05-06 08:54 | 41.54249 | -81.36688 | 36885 ft | 558 kts | 99° |
| 2026-05-06 08:55 | 41.53322 | -81.26408 | 36839 ft | 557 kts | 100° |
| 2026-05-06 08:55 | 41.52375 | -81.16180 | 36845 ft | 555 kts | 100° |
| 2026-05-06 08:56 | 41.51419 | -81.05958 | 36843 ft | 555 kts | 100° |
| 2026-05-06 08:56 | 41.50453 | -80.95730 | 36833 ft | 555 kts | 100° |
| 2026-05-06 08:57 | 41.49482 | -80.85542 | 36824 ft | 554 kts | 100° |
| 2026-05-06 08:57 | 41.48503 | -80.75377 | 36829 ft | 553 kts | 100° |
| 2026-05-06 08:58 | 41.47520 | -80.65262 | 36823 ft | 553 kts | 100° |
| 2026-05-06 08:58 | 41.46525 | -80.55116 | 36820 ft | 553 kts | 100° |
| 2026-05-06 08:59 | 41.45518 | -80.44951 | 36815 ft | 554 kts | 100° |
| 2026-05-06 08:59 | 41.44497 | -80.34734 | 36814 ft | 554 kts | 100° |
| 2026-05-06 09:00 | 41.43476 | -80.24606 | 36808 ft | 554 kts | 101° |
| 2026-05-06 09:00 | 41.42450 | -80.14490 | 36805 ft | 555 kts | 100° |
| 2026-05-06 09:01 | 41.41467 | -80.04281 | 36809 ft | 555 kts | 99° |
| 2026-05-06 09:01 | 41.40476 | -79.94074 | 36804 ft | 555 kts | 99° |
| 2026-05-06 09:02 | 41.39479 | -79.83902 | 36813 ft | 555 kts | 100° |
| 2026-05-06 09:02 | 41.38477 | -79.73771 | 36811 ft | 555 kts | 99° |
| 2026-05-06 09:03 | 41.37459 | -79.63571 | 36809 ft | 555 kts | 100° |
| 2026-05-06 09:03 | 41.36436 | -79.53418 | 36806 ft | 555 kts | 100° |
| 2026-05-06 09:04 | 41.35400 | -79.43226 | 36808 ft | 555 kts | 100° |
| 2026-05-06 09:04 | 41.34356 | -79.33045 | 36808 ft | 555 kts | 100° |
| 2026-05-06 09:05 | 41.33304 | -79.22882 | 36800 ft | 556 kts | 100° |
| 2026-05-06 09:05 | 41.32248 | -79.12764 | 36807 ft | 556 kts | 100° |
| 2026-05-06 09:06 | 41.31176 | -79.02582 | 36812 ft | 556 kts | 100° |
| 2026-05-06 09:06 | 41.30095 | -78.92393 | 36800 ft | 556 kts | 100° |
| 2026-05-06 09:07 | 41.29007 | -78.82239 | 36792 ft | 556 kts | 100° |
| 2026-05-06 09:07 | 41.27908 | -78.72053 | 36833 ft | 556 kts | 100° |
| 2026-05-06 09:08 | 41.26801 | -78.61888 | 36818 ft | 555 kts | 99° |
| 2026-05-06 09:08 | 41.25687 | -78.51736 | 36819 ft | 556 kts | 99° |
| 2026-05-06 09:09 | 41.24571 | -78.41648 | 36821 ft | 556 kts | 100° |
| 2026-05-06 09:09 | 41.23438 | -78.31494 | 36824 ft | 555 kts | 100° |
| 2026-05-06 09:10 | 41.22299 | -78.21366 | 36829 ft | 556 kts | 100° |
| 2026-05-06 09:10 | 41.21096 | -78.11224 | 36834 ft | 555 kts | 101° |
| 2026-05-06 09:11 | 41.19837 | -78.01095 | 36817 ft | 555 kts | 101° |
| 2026-05-06 09:11 | 41.18580 | -77.90985 | 36821 ft | 555 kts | 101° |
| 2026-05-06 09:12 | 41.17322 | -77.80947 | 36816 ft | 554 kts | 101° |
| 2026-05-06 09:12 | 41.16049 | -77.70853 | 36821 ft | 554 kts | 101° |
| 2026-05-06 09:13 | 41.14766 | -77.60762 | 36810 ft | 554 kts | 101° |
| 2026-05-06 09:13 | 41.13478 | -77.50693 | 36806 ft | 556 kts | 101° |
| 2026-05-06 09:14 | 41.12176 | -77.40595 | 36809 ft | 555 kts | 101° |
| 2026-05-06 09:14 | 41.10864 | -77.30491 | 36809 ft | 555 kts | 101° |
| 2026-05-06 09:15 | 41.09556 | -77.20487 | 36788 ft | 555 kts | 101° |
| 2026-05-06 09:15 | 41.08230 | -77.10422 | 36810 ft | 554 kts | 101° |
| 2026-05-06 09:16 | 41.06896 | -77.00366 | 36807 ft | 554 kts | 101° |
| 2026-05-06 09:16 | 41.05555 | -76.90329 | 36813 ft | 554 kts | 101° |
| 2026-05-06 09:17 | 41.04207 | -76.80293 | 36813 ft | 553 kts | 101° |
| 2026-05-06 09:17 | 41.02852 | -76.70264 | 36815 ft | 552 kts | 101° |
| 2026-05-06 09:18 | 41.00902 | -76.60566 | 36833 ft | 550 kts | 110° |
| 2026-05-06 09:18 | 40.99755 | -76.55738 | 36251 ft | 549 kts | 111° |
| 2026-05-06 09:18 | 40.98471 | -76.50949 | 35221 ft | 556 kts | 113° |
| 2026-05-06 09:18 | 40.97256 | -76.46107 | 34605 ft | 548 kts | 109° |
| 2026-05-06 09:19 | 40.96149 | -76.41322 | 33893 ft | 540 kts | 109° |
| 2026-05-06 09:19 | 40.95030 | -76.36601 | 33029 ft | 534 kts | 110° |
| 2026-05-06 09:19 | 40.93915 | -76.31955 | 32250 ft | 526 kts | 110° |
| 2026-05-06 09:19 | 40.92818 | -76.27403 | 31497 ft | 518 kts | 111° |
| 2026-05-06 09:20 | 40.91731 | -76.22897 | 30766 ft | 511 kts | 111° |
| 2026-05-06 09:20 | 40.90658 | -76.18458 | 30063 ft | 503 kts | 111° |
| 2026-05-06 09:20 | 40.89600 | -76.14087 | 29261 ft | 495 kts | 111° |
| 2026-05-06 09:20 | 40.88556 | -76.09781 | 28463 ft | 488 kts | 111° |
| 2026-05-06 09:21 | 40.87524 | -76.05538 | 27653 ft | 482 kts | 111° |
| 2026-05-06 09:21 | 40.86504 | -76.01345 | 27014 ft | 473 kts | 111° |
| 2026-05-06 09:21 | 40.85510 | -75.97273 | 26630 ft | 464 kts | 111° |
| 2026-05-06 09:21 | 40.84536 | -75.93285 | 26133 ft | 461 kts | 111° |
| 2026-05-06 09:22 | 40.83551 | -75.89263 | 25629 ft | 460 kts | 111° |
| 2026-05-06 09:22 | 40.82565 | -75.85242 | 25148 ft | 459 kts | 112° |
| 2026-05-06 09:22 | 40.81583 | -75.81243 | 24671 ft | 457 kts | 111° |
| 2026-05-06 09:22 | 40.80603 | -75.77260 | 24180 ft | 456 kts | 111° |
| 2026-05-06 09:23 | 40.79620 | -75.73288 | 23688 ft | 455 kts | 111° |
| 2026-05-06 09:23 | 40.78631 | -75.69314 | 23107 ft | 455 kts | 111° |
| 2026-05-06 09:23 | 40.77650 | -75.65373 | 22632 ft | 452 kts | 111° |
| 2026-05-06 09:23 | 40.76673 | -75.61454 | 22174 ft | 446 kts | 111° |
| 2026-05-06 09:24 | 40.75718 | -75.57633 | 21688 ft | 433 kts | 111° |
| 2026-05-06 09:24 | 40.74792 | -75.53937 | 21288 ft | 420 kts | 112° |
| 2026-05-06 09:24 | 40.73879 | -75.50293 | 20888 ft | 417 kts | 112° |
| 2026-05-06 09:24 | 40.72968 | -75.46664 | 20456 ft | 415 kts | 111° |
| 2026-05-06 09:25 | 40.72227 | -75.43043 | 19988 ft | 417 kts | 108° |
| 2026-05-06 09:25 | 40.71497 | -75.39309 | 19562 ft | 414 kts | 108° |
| 2026-05-06 09:25 | 40.70776 | -75.35691 | 19165 ft | 412 kts | 108° |
| 2026-05-06 09:25 | 40.70043 | -75.32055 | 18759 ft | 410 kts | 108° |
| 2026-05-06 09:26 | 40.69318 | -75.28472 | 18353 ft | 408 kts | 108° |
| 2026-05-06 09:26 | 40.68587 | -75.24865 | 17892 ft | 406 kts | 109° |
| 2026-05-06 09:26 | 40.67860 | -75.21285 | 17453 ft | 404 kts | 109° |
| 2026-05-06 09:26 | 40.67135 | -75.17727 | 17070 ft | 399 kts | 110° |
| 2026-05-06 09:27 | 40.66035 | -75.14442 | 16641 ft | 385 kts | 130° |
| 2026-05-06 09:27 | 40.64334 | -75.11806 | 16322 ft | 374 kts | 138° |
| 2026-05-06 09:27 | 40.62600 | -75.09277 | 15955 ft | 370 kts | 138° |
| 2026-05-06 09:27 | 40.60872 | -75.06786 | 15586 ft | 366 kts | 139° |
| 2026-05-06 09:28 | 40.59158 | -75.04337 | 15201 ft | 364 kts | 139° |
| 2026-05-06 09:28 | 40.57473 | -75.01869 | 14784 ft | 365 kts | 133° |
| 2026-05-06 09:28 | 40.56260 | -74.98889 | 14347 ft | 374 kts | 116° |
| 2026-05-06 09:28 | 40.55331 | -74.95759 | 14017 ft | 370 kts | 117° |
| 2026-05-06 09:29 | 40.54373 | -74.92584 | 13662 ft | 367 kts | 117° |
| 2026-05-06 09:29 | 40.53440 | -74.89472 | 13227 ft | 365 kts | 117° |
| 2026-05-06 09:29 | 40.52523 | -74.86410 | 12820 ft | 363 kts | 117° |
| 2026-05-06 09:29 | 40.51601 | -74.83332 | 12436 ft | 360 kts | 117° |
| 2026-05-06 09:30 | 40.50687 | -74.80283 | 12059 ft | 357 kts | 117° |
| 2026-05-06 09:30 | 40.49780 | -74.77258 | 11682 ft | 354 kts | 117° |
| 2026-05-06 09:30 | 40.48884 | -74.74277 | 11302 ft | 352 kts | 118° |
| 2026-05-06 09:30 | 40.47991 | -74.71306 | 10859 ft | 344 kts | 118° |
| 2026-05-06 09:31 | 40.47128 | -74.68437 | 10545 ft | 330 kts | 118° |
| 2026-05-06 09:31 | 40.46310 | -74.65715 | 10416 ft | 311 kts | 118° |
| 2026-05-06 09:31 | 40.45538 | -74.63151 | 10287 ft | 293 kts | 119° |
| 2026-05-06 09:31 | 40.44814 | -74.60755 | 10140 ft | 277 kts | 120° |
| 2026-05-06 09:32 | 40.44115 | -74.58447 | 10019 ft | 272 kts | 120° |
| 2026-05-06 09:32 | 40.43405 | -74.56067 | 9759 ft | 287 kts | 115° |
| 2026-05-06 09:32 | 40.43168 | -74.53395 | 9343 ft | 305 kts | 89° |
| 2026-05-06 09:32 | 40.43713 | -74.50672 | 8989 ft | 312 kts | 74° |
| 2026-05-06 09:33 | 40.44436 | -74.48002 | 8688 ft | 310 kts | 75° |
| 2026-05-06 09:33 | 40.45140 | -74.45381 | 8384 ft | 309 kts | 74° |
| 2026-05-06 09:33 | 40.45850 | -74.42741 | 8060 ft | 309 kts | 74° |
| 2026-05-06 09:33 | 40.46564 | -74.40088 | 7726 ft | 309 kts | 74° |
| 2026-05-06 09:34 | 40.47279 | -74.37427 | 7397 ft | 308 kts | 74° |
| 2026-05-06 09:34 | 40.47994 | -74.34767 | 7051 ft | 308 kts | 74° |
| 2026-05-06 09:34 | 40.48702 | -74.32127 | 6739 ft | 308 kts | 74° |
| 2026-05-06 09:34 | 40.49405 | -74.29505 | 6420 ft | 308 kts | 74° |
| 2026-05-06 09:35 | 40.50118 | -74.26842 | 6075 ft | 309 kts | 74° |
| 2026-05-06 09:35 | 40.50830 | -74.24183 | 5720 ft | 309 kts | 73° |
| 2026-05-06 09:35 | 40.51543 | -74.21510 | 5362 ft | 309 kts | 73° |
| 2026-05-06 09:35 | 40.52251 | -74.18859 | 5032 ft | 309 kts | 73° |
| 2026-05-06 09:36 | 40.52954 | -74.16229 | 4692 ft | 301 kts | 74° |
| 2026-05-06 09:36 | 40.53637 | -74.13664 | 4349 ft | 294 kts | 74° |
| 2026-05-06 09:36 | 40.54307 | -74.11144 | 4078 ft | 292 kts | 74° |
| 2026-05-06 09:36 | 40.54967 | -74.08662 | 3895 ft | 285 kts | 74° |
| 2026-05-06 09:37 | 40.55878 | -74.06381 | 3727 ft | 281 kts | 48° |
| 2026-05-06 09:37 | 40.57372 | -74.04794 | 3594 ft | 271 kts | 31° |
| 2026-05-06 09:37 | 40.58900 | -74.03389 | 3470 ft | 263 kts | 33° |
| 2026-05-06 09:37 | 40.60358 | -74.02071 | 3411 ft | 248 kts | 31° |
| 2026-05-06 09:38 | 40.61762 | -74.00868 | 3288 ft | 235 kts | 29° |
| 2026-05-06 09:38 | 40.63128 | -73.99734 | 3062 ft | 229 kts | 28° |
| 2026-05-06 09:38 | 40.64479 | -73.98629 | 2746 ft | 229 kts | 28° |
| 2026-05-06 09:38 | 40.65818 | -73.97532 | 2475 ft | 223 kts | 27° |
| 2026-05-06 09:39 | 40.67121 | -73.96462 | 2231 ft | 217 kts | 27° |
| 2026-05-06 09:39 | 40.68375 | -73.95432 | 2031 ft | 207 kts | 26° |
| 2026-05-06 09:39 | 40.69537 | -73.94477 | 1814 ft | 195 kts | 27° |
| 2026-05-06 09:39 | 40.70672 | -73.93534 | 1564 ft | 190 kts | 28° |
| 2026-05-06 09:40 | 40.71801 | -73.92602 | 1331 ft | 189 kts | 28° |
| 2026-05-06 09:40 | 40.72894 | -73.91691 | 1085 ft | 185 kts | 30° |
| 2026-05-06 09:40 | 40.74999 | -73.90015 | 554 ft | 169 kts | 34° |
| 2026-05-06 09:41 | 40.75966 | -73.89194 | 304 ft | 160 kts | 33° |
| 2026-05-06 09:41 | 40.76885 | -73.88437 | 68 ft | 153 kts | 33° |
| 2026-05-06 09:41 | 40.77684 | -73.87776 | 27 ft | 107 kts | 32° |
| 2026-05-06 09:41 | 40.78118 | -73.87421 | 17 ft | 39 kts | 32° |
| 2026-05-06 09:42 | 40.78350 | -73.87229 | 17 ft | 27 kts | 30° |
| 2026-05-06 09:42 | 40.78502 | -73.87104 | 19 ft | 19 kts | 41° |
| 2026-05-06 09:42 | 40.78493 | -73.87025 | 19 ft | 8 kts | 150° |
| 2026-05-06 09:42 | 40.78434 | -73.87013 | 20 ft | 9 kts | 198° |
| 2026-05-06 09:43 | 40.78374 | -73.87059 | 18 ft | 11 kts | 211° |
| 2026-05-06 09:43 | 40.78301 | -73.87119 | 17 ft | 14 kts | 212° |
| 2026-05-06 09:43 | 40.78212 | -73.87193 | 17 ft | 16 kts | 212° |
| 2026-05-06 09:43 | 40.78110 | -73.87278 | 16 ft | 19 kts | 212° |
| 2026-05-06 09:44 | 40.77988 | -73.87379 | 17 ft | 22 kts | 213° |
| 2026-05-06 09:44 | 40.77858 | -73.87488 | 18 ft | 22 kts | 212° |
| 2026-05-06 09:44 | 40.77770 | -73.87559 | 21 ft | 22 kts | 212° |
| 2026-05-06 09:44 | 40.77642 | -73.87664 | 24 ft | 22 kts | 212° |
| 2026-05-06 09:45 | 40.77506 | -73.87777 | 24 ft | 24 kts | 212° |
| 2026-05-06 09:45 | 40.77360 | -73.87897 | 26 ft | 23 kts | 212° |
| 2026-05-06 09:45 | 40.77288 | -73.87971 | 23 ft | 4 kts | 252° |
| 2026-05-06 09:45 | 40.77292 | -73.87995 | 23 ft | 5 kts | 289° |
| 2026-05-06 09:46 | 40.77291 | -73.88095 | 25 ft | 17 kts | 262° |
| 2026-05-06 09:46 | 40.77276 | -73.88249 | 23 ft | 15 kts | 267° |
| 2026-05-06 09:46 | 40.77307 | -73.88327 | 21 ft | 5 kts | 357° |
| 2026-05-06 09:46 | 40.77332 | -73.88334 | 22 ft | 2 kts | 333° |
| 2026-05-06 09:47 | 40.77340 | -73.88340 | 22 ft | 0 kts | 332° |
| 2026-05-06 09:47 | 40.77341 | -73.88341 | 24 ft | 0 kts | 332° |
| 2026-05-06 09:56 | 40.77341 | -73.88340 | 21 ft | 0 kts | 332° |